createdAt,value
2023-03-02T00:01:43.269Z,71.03
2023-03-02T00:04:16.788Z,71.35
2023-03-02T00:06:43.545Z,71.13
2023-03-02T00:09:09.920Z,71.86
2023-03-02T00:11:38.609Z,72.08
2023-03-02T00:14:06.329Z,72.01
2023-03-02T00:16:33.893Z,72.86
2023-03-02T00:19:00.376Z,72.60
2023-03-02T00:21:26.712Z,73.52
2023-03-02T00:23:53.385Z,73.80
2023-03-02T00:26:19.797Z,73.93
2023-03-02T00:28:46.362Z,74.57
2023-03-02T00:31:12.732Z,74.56
2023-03-02T00:33:39.194Z,74.90
2023-03-02T00:36:06.087Z,75.04
2023-03-02T00:38:32.496Z,75.26
2023-03-02T00:40:59.336Z,75.81
2023-03-02T00:43:28.032Z,75.57
2023-03-02T00:45:55.194Z,75.73
2023-03-02T00:48:21.648Z,76.11
2023-03-02T00:50:48.057Z,76.02
2023-03-02T00:53:14.441Z,75.80
2023-03-02T00:55:40.765Z,76.52
2023-03-02T00:58:07.127Z,76.61
2023-03-02T01:00:35.723Z,76.29
2023-03-02T01:03:02.093Z,76.12
2023-03-02T01:05:28.544Z,75.87
2023-03-02T01:07:54.860Z,76.10
2023-03-02T01:10:22.262Z,76.18
2023-03-02T01:12:48.612Z,75.84
2023-03-02T01:15:15.148Z,75.67
2023-03-02T01:17:42.900Z,75.92
2023-03-02T01:20:10.844Z,76.40
2023-03-02T01:22:37.246Z,76.40
2023-03-02T01:25:04.320Z,76.91
2023-03-02T01:27:30.756Z,76.48
2023-03-02T01:29:57.199Z,76.33
2023-03-02T01:32:23.733Z,76.66
2023-03-02T01:34:50.114Z,76.94
2023-03-02T01:37:16.508Z,76.81
2023-03-02T01:39:42.878Z,76.63
2023-03-02T01:42:09.353Z,76.57
2023-03-02T01:44:43.605Z,76.77
2023-03-02T01:47:34.995Z,76.86
2023-03-02T01:50:16.778Z,76.72
2023-03-02T01:52:43.300Z,76.70
2023-03-02T01:55:13.710Z,76.61
2023-03-02T01:57:46.515Z,76.46
2023-03-02T02:00:19.351Z,76.60
2023-03-02T02:02:46.366Z,75.99
2023-03-02T02:05:19.417Z,76.83
2023-03-02T02:07:46.336Z,77.13
2023-03-02T02:10:14.574Z,76.21
2023-03-02T02:12:40.991Z,76.57
2023-03-02T02:15:08.061Z,76.85
2023-03-02T02:17:35.241Z,77.33
2023-03-02T02:20:50.065Z,77.43
2023-03-02T02:23:26.452Z,77.70
2023-03-02T02:25:55.574Z,77.26
2023-03-02T02:28:29.268Z,77.26
2023-03-02T02:31:07.517Z,77.32
2023-03-02T02:33:36.561Z,77.58
2023-03-02T02:36:07.728Z,77.63
2023-03-02T02:38:36.315Z,77.94
2023-03-02T02:41:06.574Z,77.50
2023-03-02T02:43:33.670Z,77.66
2023-03-02T02:46:01.349Z,78.11
2023-03-02T02:48:31.073Z,78.18
2023-03-02T02:51:03.054Z,77.72
2023-03-02T02:53:59.349Z,77.44
2023-03-02T02:56:29.318Z,77.50
2023-03-02T02:58:58.431Z,78.10
2023-03-02T03:01:26.293Z,77.57
2023-03-02T03:03:59.006Z,77.04
2023-03-02T03:06:30.333Z,77.51
2023-03-02T03:08:59.993Z,77.36
2023-03-02T03:11:32.181Z,77.44
2023-03-02T03:14:17.135Z,77.13
2023-03-02T03:16:46.641Z,77.21
2023-03-02T03:19:24.805Z,77.91
2023-03-02T03:21:54.402Z,78.53
2023-03-02T03:24:21.697Z,78.00
2023-03-02T03:26:48.758Z,78.32
2023-03-02T03:29:16.460Z,77.76
2023-03-02T03:31:42.985Z,77.91
2023-03-02T03:34:11.057Z,77.91
2023-03-02T03:36:37.566Z,77.48
2023-03-02T03:39:05.631Z,77.80
2023-03-02T03:41:32.279Z,77.94
2023-03-02T03:43:58.673Z,78.20
2023-03-02T03:46:25.168Z,77.63
2023-03-02T03:48:51.763Z,77.85
2023-03-02T03:51:18.667Z,77.99
2023-03-02T03:53:45.094Z,77.78
2023-03-02T03:56:11.804Z,77.61
2023-03-02T03:58:38.604Z,78.29
2023-03-02T04:01:05.161Z,78.18
2023-03-02T04:03:31.726Z,77.65
2023-03-02T04:05:58.111Z,78.33
2023-03-02T04:08:24.473Z,77.75
2023-03-02T04:10:50.830Z,78.10
2023-03-02T04:13:17.254Z,78.46
2023-03-02T04:15:46.561Z,79.04
2023-03-02T04:18:13.408Z,78.76
2023-03-02T04:20:39.839Z,78.83
2023-03-02T04:23:06.192Z,78.87
2023-03-02T04:25:32.674Z,78.68
2023-03-02T04:27:59.140Z,79.34
2023-03-02T04:30:26.526Z,78.98
2023-03-02T04:32:53.459Z,79.08
2023-03-02T04:35:20.175Z,79.28
2023-03-02T04:37:47.017Z,78.83
2023-03-02T04:40:14.797Z,78.84
2023-03-02T04:42:41.740Z,79.17
2023-03-02T04:45:08.562Z,79.04
2023-03-02T04:47:34.984Z,79.50
2023-03-02T04:50:01.515Z,79.17
2023-03-02T04:52:27.948Z,79.55
2023-03-02T04:54:54.329Z,79.67
2023-03-02T04:57:20.725Z,79.21
2023-03-02T04:59:47.112Z,79.04
2023-03-02T05:02:13.610Z,79.35
2023-03-02T05:04:41.014Z,78.71
2023-03-02T05:07:07.701Z,79.20
2023-03-02T05:09:34.066Z,78.98
2023-03-02T05:12:01.484Z,78.87
2023-03-02T05:14:29.233Z,78.44
2023-03-02T05:16:55.772Z,78.66
2023-03-02T05:19:22.207Z,78.47
2023-03-02T05:21:48.791Z,78.39
2023-03-02T05:24:15.301Z,78.64
2023-03-02T05:26:41.901Z,78.65
2023-03-02T05:29:08.436Z,78.00
2023-03-02T05:31:38.770Z,78.63
2023-03-02T05:34:07.453Z,78.52
2023-03-02T05:36:34.430Z,78.54
2023-03-02T05:39:01.391Z,78.69
2023-03-02T05:41:28.001Z,78.98
2023-03-02T05:43:54.426Z,78.74
2023-03-02T05:46:22.137Z,79.20
2023-03-02T05:48:48.892Z,79.09
2023-03-02T05:51:15.604Z,78.83
2023-03-02T05:53:41.973Z,78.71
2023-03-02T05:56:08.459Z,79.08
2023-03-02T05:58:34.942Z,78.54
2023-03-02T06:01:01.468Z,79.09
2023-03-02T06:03:28.100Z,78.84
2023-03-02T06:05:54.545Z,79.32
2023-03-02T06:08:21.769Z,79.11
2023-03-02T06:10:50.610Z,79.45
2023-03-02T06:13:17.249Z,79.79
2023-03-02T06:15:43.889Z,79.39
2023-03-02T06:18:12.412Z,79.96
2023-03-02T06:20:39.514Z,80.12
2023-03-02T06:23:05.909Z,80.23
2023-03-02T06:25:32.291Z,80.01
2023-03-02T06:27:58.666Z,80.30
2023-03-02T06:30:27.473Z,80.39
2023-03-02T06:32:53.854Z,80.46
2023-03-02T06:35:20.485Z,79.86
2023-03-02T06:37:46.953Z,80.34
2023-03-02T06:40:14.249Z,79.99
2023-03-02T06:42:42.102Z,79.62
2023-03-02T06:45:10.204Z,79.47
2023-03-02T06:47:36.884Z,79.79
2023-03-02T06:50:04.054Z,79.84
2023-03-02T06:52:30.548Z,80.03
2023-03-02T06:54:56.964Z,79.96
2023-03-02T06:57:23.913Z,80.00
2023-03-02T06:59:50.407Z,79.74
2023-03-02T07:02:16.778Z,80.31
2023-03-02T07:04:43.206Z,80.30
2023-03-02T07:07:09.596Z,79.77
2023-03-02T07:09:36.095Z,79.66
2023-03-02T07:12:02.752Z,79.62
2023-03-02T07:14:29.189Z,79.49
2023-03-02T07:16:57.512Z,79.33
2023-03-02T07:19:24.266Z,79.72
2023-03-02T07:21:50.617Z,79.71
2023-03-02T07:24:16.989Z,79.81
2023-03-02T07:26:43.384Z,79.80
2023-03-02T07:29:09.777Z,79.54
2023-03-02T07:31:36.102Z,80.07
2023-03-02T07:34:02.572Z,80.12
2023-03-02T07:36:28.974Z,80.13
2023-03-02T07:38:55.456Z,80.53
2023-03-02T07:41:22.742Z,80.18
2023-03-02T07:43:49.085Z,80.45
2023-03-02T07:46:15.558Z,80.22
2023-03-02T07:48:41.971Z,80.68
2023-03-02T07:51:08.446Z,80.49
2023-03-02T07:53:35.154Z,80.67
2023-03-02T07:56:09.670Z,80.42
2023-03-02T07:58:36.682Z,80.52
2023-03-02T08:01:03.833Z,80.66
2023-03-02T08:03:30.277Z,80.48
2023-03-02T08:05:56.695Z,80.63
2023-03-02T08:08:23.136Z,80.87
2023-03-02T08:10:49.603Z,80.53
2023-03-02T08:13:15.957Z,80.80
2023-03-02T08:15:42.295Z,80.39
2023-03-02T08:18:08.646Z,80.54
2023-03-02T08:20:35.005Z,80.79
2023-03-02T08:23:01.418Z,80.31
2023-03-02T08:25:27.776Z,80.51
2023-03-02T08:27:54.123Z,80.58
2023-03-02T08:30:20.511Z,80.19
2023-03-02T08:32:46.937Z,80.75
2023-03-02T08:35:13.404Z,80.52
2023-03-02T08:37:39.738Z,80.34
2023-03-02T08:40:06.868Z,80.39
2023-03-02T08:42:33.229Z,80.92
2023-03-02T08:44:59.594Z,80.70
2023-03-02T08:47:26.628Z,80.39
2023-03-02T08:49:52.962Z,80.77
2023-03-02T08:52:19.434Z,81.43
2023-03-02T08:54:46.583Z,80.63
2023-03-02T08:57:13.119Z,80.88
2023-03-02T08:59:39.931Z,81.42
2023-03-02T09:02:07.382Z,81.02
2023-03-02T09:04:33.887Z,81.38
2023-03-02T09:07:00.302Z,80.92
2023-03-02T09:09:26.645Z,81.22
2023-03-02T09:11:53.121Z,81.06
2023-03-02T09:14:19.504Z,81.17
2023-03-02T09:16:46.884Z,81.15
2023-03-02T09:19:14.088Z,81.52
2023-03-02T09:21:40.633Z,81.52
2023-03-02T09:24:07.212Z,81.86
2023-03-02T09:26:34.044Z,81.44
2023-03-02T09:29:00.664Z,80.98
2023-03-02T09:31:30.008Z,81.61
2023-03-02T09:33:57.017Z,81.42
2023-03-02T09:36:25.294Z,81.94
2023-03-02T09:38:51.825Z,81.26
2023-03-02T09:41:33.070Z,81.16
2023-03-02T09:44:29.866Z,80.88
2023-03-02T09:47:02.798Z,81.09
2023-03-02T09:49:41.341Z,80.49
2023-03-02T09:52:13.879Z,81.30
2023-03-02T09:54:40.837Z,80.76
2023-03-02T09:57:26.725Z,79.99
2023-03-02T10:00:24.126Z,80.37
2023-03-02T10:02:56.219Z,80.24
2023-03-02T10:05:39.637Z,80.33
2023-03-02T10:08:12.805Z,80.66
2023-03-02T10:11:17.792Z,79.89
2023-03-02T10:13:49.408Z,79.71
2023-03-02T10:16:25.233Z,80.08
2023-03-02T10:19:15.744Z,79.83
2023-03-02T10:21:58.074Z,78.86
2023-03-02T10:24:38.073Z,78.68
2023-03-02T10:27:21.021Z,78.64
2023-03-02T10:30:27.666Z,78.21
2023-03-02T10:32:58.234Z,77.96
2023-03-02T10:35:26.702Z,77.94
2023-03-02T10:38:15.141Z,77.53
2023-03-02T10:40:43.226Z,78.01
2023-03-02T10:43:45.245Z,77.90
2023-03-02T10:46:13.570Z,76.42
2023-03-02T10:48:49.861Z,75.21
2023-03-02T10:51:29.899Z,74.64
2023-03-02T10:54:16.898Z,74.38
2023-03-02T10:56:49.742Z,74.82
2023-03-02T10:59:24.934Z,74.64
2023-03-02T11:02:23.148Z,74.42
2023-03-02T11:04:58.314Z,74.04
2023-03-02T11:07:27.686Z,73.40
2023-03-02T11:10:02.746Z,72.92
2023-03-02T11:12:30.017Z,72.70
2023-03-02T11:15:45.375Z,72.57
2023-03-02T11:18:14.835Z,73.01
2023-03-02T11:20:46.569Z,72.64
2023-03-02T11:23:18.581Z,72.72
2023-03-02T11:25:52.892Z,71.67
2023-03-02T11:28:34.299Z,71.45
2023-03-02T11:31:02.736Z,71.40
2023-03-02T11:33:36.722Z,70.99
2023-03-02T11:36:12.157Z,70.96
2023-03-02T11:38:54.573Z,70.05
2023-03-02T11:41:31.496Z,70.53
2023-03-02T11:44:07.671Z,69.61
2023-03-02T11:46:35.109Z,69.10
2023-03-02T11:49:07.050Z,68.77
2023-03-02T11:51:37.847Z,68.27
2023-03-02T11:54:11.669Z,67.86
2023-03-02T11:56:40.128Z,67.82
2023-03-02T11:59:15.585Z,68.52
2023-03-02T12:01:47.893Z,68.48
2023-03-02T12:04:43.868Z,68.82
2023-03-02T12:07:19.545Z,68.99
2023-03-02T12:09:56.985Z,68.58
2023-03-02T12:12:26.431Z,68.28
2023-03-02T12:14:53.050Z,67.74
2023-03-02T12:17:19.325Z,67.24
2023-03-02T12:19:47.045Z,66.67
2023-03-02T12:22:15.247Z,67.10
2023-03-02T12:24:44.793Z,66.44
2023-03-02T12:27:14.093Z,66.48
2023-03-02T12:29:47.908Z,65.16
2023-03-02T12:32:26.881Z,65.48
2023-03-02T12:34:56.926Z,65.73
2023-03-02T12:37:28.143Z,65.51
2023-03-02T12:40:17.042Z,65.25
2023-03-02T12:43:03.087Z,65.15
2023-03-02T12:45:52.358Z,65.89
2023-03-02T12:48:45.218Z,65.95
2023-03-02T12:51:24.233Z,65.24
2023-03-02T12:54:05.815Z,62.80
2023-03-02T12:56:33.066Z,62.34
2023-03-02T12:58:59.538Z,62.69
2023-03-02T13:01:28.875Z,62.48
2023-03-02T13:03:55.854Z,61.98
2023-03-02T13:06:25.941Z,62.41
2023-03-02T13:08:55.691Z,62.91
2023-03-02T13:11:33.182Z,62.76
2023-03-02T13:14:03.599Z,62.95
2023-03-02T13:16:33.026Z,62.65
2023-03-02T13:19:02.330Z,61.99
2023-03-02T13:21:34.717Z,63.76
2023-03-02T13:24:01.564Z,64.76
2023-03-02T13:26:29.692Z,65.45
2023-03-02T13:29:06.243Z,65.75
2023-03-02T13:31:34.033Z,66.14
2023-03-02T13:34:01.220Z,67.01
2023-03-02T13:36:35.863Z,67.38
2023-03-02T13:39:06.883Z,67.16
2023-03-02T13:41:36.024Z,67.19
2023-03-02T13:44:19.758Z,67.47
2023-03-02T13:46:47.139Z,67.72
2023-03-02T13:49:13.613Z,67.68
2023-03-02T13:51:46.372Z,67.29
2023-03-02T13:54:20.727Z,66.82
2023-03-02T13:56:47.388Z,67.20
2023-03-02T13:59:18.611Z,67.14
2023-03-02T14:01:45.663Z,67.20
2023-03-02T14:04:17.535Z,67.12
2023-03-02T14:06:45.573Z,67.42
2023-03-02T14:09:12.017Z,67.47
2023-03-02T14:11:45.012Z,67.19
2023-03-02T14:14:17.607Z,67.54
2023-03-02T14:16:44.041Z,67.86
2023-03-02T14:19:16.206Z,67.76
2023-03-02T14:21:43.334Z,68.18
2023-03-02T14:24:10.252Z,68.01
2023-03-02T14:26:40.655Z,67.30
2023-03-02T14:29:20.782Z,67.17
2023-03-02T14:31:47.605Z,67.37
2023-03-02T14:34:15.844Z,67.67
2023-03-02T14:36:44.459Z,67.46
2023-03-02T14:39:29.475Z,67.60
2023-03-02T14:41:56.394Z,67.87
2023-03-02T14:44:23.142Z,68.45
2023-03-02T14:46:49.790Z,68.54
2023-03-02T14:49:16.265Z,67.79
2023-03-02T14:51:48.665Z,68.07
2023-03-02T14:54:19.181Z,68.31
2023-03-02T14:56:46.226Z,68.42
2023-03-02T14:59:14.256Z,68.64
2023-03-02T15:01:41.930Z,68.28
2023-03-02T15:04:08.310Z,68.45
2023-03-02T15:06:38.974Z,68.23
2023-03-02T15:09:06.427Z,67.99
2023-03-02T15:11:33.112Z,67.88
2023-03-02T15:13:59.619Z,68.24
2023-03-02T15:16:26.136Z,68.29
2023-03-02T15:18:53.190Z,68.31
2023-03-02T15:21:24.471Z,68.45
2023-03-02T15:23:51.373Z,68.57
2023-03-02T15:26:18.167Z,68.47
2023-03-02T15:28:47.165Z,68.43
2023-03-02T15:31:15.433Z,68.63
2023-03-02T15:33:43.145Z,68.60
2023-03-02T15:36:09.775Z,68.53
2023-03-02T15:38:36.611Z,68.74
2023-03-02T15:41:08.439Z,68.83
2023-03-02T15:43:34.966Z,68.80
2023-03-02T15:46:02.236Z,68.63
2023-03-02T15:48:30.102Z,69.06
2023-03-02T15:51:01.152Z,68.84
2023-03-02T15:53:29.148Z,68.76
2023-03-02T15:55:57.237Z,68.64
2023-03-02T15:58:23.848Z,68.90
2023-03-02T16:00:53.454Z,68.72
2023-03-02T16:03:19.902Z,68.53
2023-03-02T16:05:46.277Z,68.40
2023-03-02T16:08:12.630Z,68.26
2023-03-02T16:10:42.584Z,68.12
2023-03-02T16:13:10.319Z,68.36
2023-03-02T16:15:40.039Z,68.25
2023-03-02T16:18:10.776Z,68.38
2023-03-02T16:20:38.827Z,68.56
2023-03-02T16:23:07.653Z,68.34
2023-03-02T16:25:35.853Z,68.53
2023-03-02T16:28:03.143Z,68.82
2023-03-02T16:30:30.700Z,68.99
2023-03-02T16:32:58.966Z,69.28
2023-03-02T16:35:25.622Z,69.75
2023-03-02T16:37:52.014Z,70.08
2023-03-02T16:40:18.556Z,70.33
2023-03-02T16:42:44.960Z,70.54
2023-03-02T16:45:11.626Z,70.46
2023-03-02T16:47:38.368Z,70.64
2023-03-02T16:50:06.304Z,70.67
2023-03-02T16:52:32.838Z,70.67
2023-03-02T16:54:59.375Z,70.85
2023-03-02T16:57:25.738Z,70.83
2023-03-02T16:59:52.152Z,70.69
2023-03-02T17:02:18.610Z,70.88
2023-03-02T17:04:45.124Z,70.89
2023-03-02T17:07:11.566Z,71.31
2023-03-02T17:09:41.334Z,71.60
2023-03-02T17:12:08.041Z,71.54
2023-03-02T17:14:34.428Z,71.48
2023-03-02T17:17:03.237Z,71.90
2023-03-02T17:19:29.769Z,71.82
2023-03-02T17:21:58.330Z,71.78
2023-03-02T17:24:25.026Z,71.69
2023-03-02T17:26:51.392Z,72.01
2023-03-02T17:29:17.760Z,71.99
2023-03-02T17:31:44.846Z,72.16
2023-03-02T17:34:11.840Z,71.90
2023-03-02T17:36:38.280Z,72.10
2023-03-02T17:39:05.357Z,72.11
2023-03-02T17:41:32.972Z,71.98
2023-03-02T17:43:59.450Z,72.18
2023-03-02T17:46:27.629Z,72.10
2023-03-02T17:48:56.887Z,72.17
2023-03-02T17:51:25.726Z,72.11
2023-03-02T17:53:53.401Z,72.04
2023-03-02T17:56:22.059Z,71.98
2023-03-02T17:58:56.192Z,71.92
2023-03-02T18:01:22.578Z,71.89
2023-03-02T18:03:48.951Z,72.03
2023-03-02T18:06:17.848Z,71.93
2023-03-02T18:08:44.751Z,72.11
2023-03-02T18:11:11.164Z,72.03
2023-03-02T18:13:37.522Z,71.99
2023-03-02T18:16:04.109Z,72.06
2023-03-02T18:18:30.548Z,72.31
2023-03-02T18:20:56.953Z,72.43
2023-03-02T18:23:23.379Z,72.54
2023-03-02T18:25:50.099Z,72.85
2023-03-02T18:28:16.482Z,72.63
2023-03-02T18:30:43.381Z,72.67
2023-03-02T18:33:09.904Z,72.78
2023-03-02T18:35:36.423Z,72.41
2023-03-02T18:38:02.902Z,72.32
2023-03-02T18:40:29.275Z,72.31
2023-03-02T18:42:55.638Z,72.06
2023-03-02T18:45:26.972Z,72.06
2023-03-02T18:47:53.528Z,71.85
2023-03-02T18:50:20.015Z,71.95
2023-03-02T18:52:46.420Z,71.83
2023-03-02T18:55:13.353Z,72.02
2023-03-02T18:57:39.836Z,71.99
2023-03-02T19:00:10.304Z,71.99
2023-03-02T19:02:36.664Z,72.05
2023-03-02T19:05:03.176Z,72.26
2023-03-02T19:07:29.587Z,72.25
2023-03-02T19:09:56.051Z,72.10
2023-03-02T19:12:22.449Z,72.38
2023-03-02T19:14:48.884Z,72.35
2023-03-02T19:17:15.276Z,72.40
2023-03-02T19:19:43.581Z,72.37
2023-03-02T19:22:10.300Z,72.43
2023-03-02T19:24:36.761Z,72.40
2023-03-02T19:27:03.511Z,72.79
2023-03-02T19:29:29.908Z,72.44
2023-03-02T19:31:56.455Z,72.58
2023-03-02T19:34:23.051Z,72.57
2023-03-02T19:36:49.572Z,72.65
2023-03-02T19:39:15.988Z,72.46
2023-03-02T19:41:42.442Z,72.49
2023-03-02T19:44:08.961Z,72.76
2023-03-02T19:46:35.344Z,72.73
2023-03-02T19:49:01.768Z,72.80
2023-03-02T19:51:28.227Z,72.91
2023-03-02T19:53:54.764Z,72.80
2023-03-02T19:56:21.286Z,73.23
2023-03-02T19:58:49.559Z,73.54
2023-03-02T20:01:21.479Z,73.56
2023-03-02T20:03:51.495Z,73.55
2023-03-02T20:06:18.654Z,73.69
2023-03-02T20:08:45.038Z,73.80
2023-03-02T20:11:12.479Z,73.82
2023-03-02T20:13:38.834Z,73.65
2023-03-02T20:16:05.674Z,74.21
2023-03-02T20:18:32.233Z,73.85
2023-03-02T20:20:58.628Z,74.26
2023-03-02T20:23:25.053Z,74.47
2023-03-02T20:25:51.511Z,74.41
2023-03-02T20:28:22.387Z,74.38
2023-03-02T20:30:53.249Z,74.32
2023-03-02T20:33:23.610Z,74.42
2023-03-02T20:35:50.686Z,74.93
2023-03-02T20:38:29.442Z,74.79
2023-03-02T20:40:56.122Z,75.01
2023-03-02T20:43:23.098Z,75.60
2023-03-02T20:45:49.817Z,75.93
2023-03-02T20:48:16.413Z,75.67
2023-03-02T20:50:43.287Z,75.96
2023-03-02T20:53:10.459Z,76.09
2023-03-02T20:55:36.919Z,76.43
2023-03-02T20:58:05.338Z,76.27
2023-03-02T21:00:33.782Z,76.55
2023-03-02T21:03:00.387Z,76.31
2023-03-02T21:05:27.969Z,76.78
2023-03-02T21:07:55.669Z,76.73
2023-03-02T21:10:28.908Z,76.62
2023-03-02T21:12:55.810Z,76.88
2023-03-02T21:15:24.450Z,76.65
2023-03-02T21:17:51.630Z,76.90
2023-03-02T21:20:18.478Z,77.01
2023-03-02T21:22:45.925Z,76.77
2023-03-02T21:25:12.488Z,76.96
2023-03-02T21:27:40.130Z,77.47
2023-03-02T21:30:09.025Z,77.50
2023-03-02T21:32:35.394Z,77.24
2023-03-02T21:35:02.425Z,77.88
2023-03-02T21:37:28.948Z,77.72
2023-03-02T21:39:56.270Z,77.58
2023-03-02T21:42:22.662Z,77.46
2023-03-02T21:44:49.081Z,77.28
2023-03-02T21:47:15.471Z,77.32
2023-03-02T21:49:41.835Z,77.34
2023-03-02T21:52:08.235Z,77.06
2023-03-02T21:54:34.793Z,77.24
2023-03-02T21:57:01.095Z,77.56
2023-03-02T21:59:27.406Z,77.36
2023-03-02T22:01:53.789Z,77.43
2023-03-02T22:04:20.590Z,77.74
2023-03-02T22:06:46.973Z,77.89
2023-03-02T22:09:13.446Z,77.68
2023-03-02T22:11:39.890Z,77.50
2023-03-02T22:14:15.071Z,78.11
2023-03-02T22:16:45.033Z,77.61
2023-03-02T22:19:29.826Z,77.93
2023-03-02T22:22:00.924Z,77.50
2023-03-02T22:24:29.869Z,78.05
2023-03-02T22:27:21.786Z,77.98
2023-03-02T22:29:50.820Z,78.21
2023-03-02T22:32:23.185Z,78.51
2023-03-02T22:34:52.568Z,78.56
2023-03-02T22:37:24.750Z,78.26
2023-03-02T22:39:55.341Z,78.26
2023-03-02T22:42:24.016Z,78.42
2023-03-02T22:45:06.360Z,78.01
2023-03-02T22:47:32.741Z,78.53
2023-03-02T22:50:03.168Z,78.59
2023-03-02T22:52:37.482Z,78.62
2023-03-02T22:55:37.480Z,78.13
2023-03-02T22:58:29.761Z,78.35
2023-03-02T23:01:00.923Z,78.71
2023-03-02T23:03:38.153Z,78.61
2023-03-02T23:06:24.197Z,78.25
2023-03-02T23:08:53.090Z,77.86
2023-03-02T23:11:21.351Z,77.37
2023-03-02T23:13:49.537Z,78.19
2023-03-02T23:16:25.067Z,77.40
2023-03-02T23:18:53.936Z,78.06
2023-03-02T23:21:35.480Z,78.04
2023-03-02T23:24:02.468Z,77.33
2023-03-02T23:26:28.957Z,77.40
2023-03-02T23:28:55.589Z,77.59
2023-03-02T23:31:22.044Z,77.93
2023-03-02T23:33:48.619Z,77.76
2023-03-02T23:36:15.871Z,77.38
2023-03-02T23:38:42.419Z,77.50
2023-03-02T23:41:09.820Z,77.54
2023-03-02T23:43:36.374Z,77.10
2023-03-02T23:46:02.893Z,77.84
2023-03-02T23:48:29.431Z,77.51
2023-03-02T23:50:55.805Z,77.13
2023-03-02T23:53:22.206Z,77.21
2023-03-02T23:55:51.197Z,77.00
2023-03-02T23:58:17.856Z,77.35
